Flight Track Log - Related Links

Times and Time Zones

All times are in EDT time to prevent confusion due to time zone crossing. See the ASQ5963 flight status page for this flight to view local times or setup timezone preferences in your user account.

Time Position Orientation Groundspeed Altitude Reporting Facility
EDT Latitude Longitude Course Direction KTS MPH feet Rate Location/Type
Thu 14:07:00 29.9594 -95.3414 90° East 160 184 700  Level Houston Center
Thu 14:08:08 29.9431 -95.2858 109° East 192 221 2,500 1,708 Climbing Houston Center
Thu 14:09:10 29.9389 -95.2133 94° East 214 246 4,400 2,177 Climbing Houston Center
Thu 14:10:00 29.9833 -94.8481 90° East  Level FlightAware Approximate
Thu 14:10:12 29.9458 -95.1367 84° East 235 270 7,000  Level Houston Center
Thu 14:11:00 29.9834 -94.7268 90° East  Level FlightAware Approximate
Thu 14:11:14 29.9506 -95.0561 86° East 250 288 8,600  Level Houston Center
Thu 14:12:00 29.9833 -94.6055 90° East  Level FlightAware Approximate
Thu 14:12:20 29.9564 -94.9486 86° East 275 316 10,600  Level Houston Center
Thu 14:13:18 29.9631 -94.8728 84° East 299 344 11,000 793 Climbing Houston Center
Thu 14:14:21 29.9711 -94.7406 86° East 339 390 12,200 1,488 Climbing Houston Center
Thu 14:15:23 29.9781 -94.6303 86° East 344 396 14,100 1,500 Climbing Houston Center
Thu 14:16:25 29.9844 -94.5231 86° East 338 389 15,300 1,161 Climbing Houston Center
Thu 14:17:27 29.9911 -94.4086 86° East 345 397 16,500 1,113 Climbing Houston Center
Thu 14:18:29 29.9983 -94.2983 86° East 348 400 17,600 919 Climbing Houston Center
Thu 14:19:31 30.0114 -94.1856 82° East 356 410 18,400 968 Climbing Houston Center
Thu 14:20:33 30.0275 -94.0475 82° East 365 420 19,600 1,065 Climbing Houston Center
Thu 14:21:35 30.0425 -93.9311 82° East 369 425 20,600 919 Climbing Houston Center
Thu 14:22:37 30.0567 -93.8133 82° East 374 430 21,500 912 Climbing Houston Center
Thu 14:23:40 30.0714 -93.6942 82° East 378 435 22,500 960 Climbing Houston Center
Thu 14:24:42 30.0839 -93.5772 83° East 374 430 23,500 1,065 Climbing Houston Center
Thu 14:25:44 30.1011 -93.4333 82° East 381 438 24,700 1,065 Climbing Houston Center
Thu 14:26:46 30.1167 -93.3147 81° East 379 436 25,700 968 Climbing Houston Center
Thu 14:27:48 30.1697 -93.2125 59° Northeast 373 429 26,700 968 Climbing Houston Center
Thu 14:28:50 30.2242 -93.1103 58° Northeast 376 433 27,700 919 Climbing Houston Center
Thu 14:29:52 30.2778 -93.0092 58° Northeast 374 430 28,600 1,065 Climbing Houston Center
Thu 14:30:54 30.3411 -92.8886 59° Northeast 370 426 29,900 1,200 Climbing Houston Center
Thu 14:31:57 30.3933 -92.7878 59° Northeast 366 421 31,100 1,200 Climbing Houston Center
Thu 14:32:59 30.4453 -92.6894 58° Northeast 359 413 32,400 1,306 Climbing Houston Center
Thu 14:34:01 30.5031 -92.5789 59° Northeast 352 405 33,800 1,258 Climbing Houston Center
Thu 14:35:03 30.5519 -92.4844 59° Northeast 344 396 35,000 1,008 Climbing Houston Center
Thu 14:36:06 30.6006 -92.3911 59° Northeast 339 390 35,900 871 Climbing Houston Center
Thu 14:37:07 30.6483 -92.2986 59° Northeast 336 387 36,800 537 Climbing Houston Center
Thu 14:38:09 30.6961 -92.2064 59° Northeast 336 387 37,000 97 Climbing Houston Center
Thu 14:39:11 30.7572 -92.0889 59° Northeast 354 407 37,000  Level Houston Center
Thu 14:40:14 30.8103 -91.9850 59° Northeast 372 428 37,000  Level Houston Center
Thu 14:41:16 30.8669 -91.8767 59° Northeast 391 450 37,000  Level Houston Center
Thu 14:42:18 30.9236 -91.7636 60° Northeast 404 465 37,000  Level Houston Center
Thu 14:43:20 30.9836 -91.6492 59° Northeast 414 476 37,000  Level Houston Center
Thu 14:44:22 31.0544 -91.5089 59° Northeast 420 483 37,000  Level Houston Center
Thu 14:45:24 31.1117 -91.3975 59° Northeast 418 481 37,000  Level Houston Center
Thu 14:46:26 31.1714 -91.2811 59° Northeast 417 480 37,000  Level Houston Center
Thu 14:47:28 31.2283 -91.1658 60° Northeast 411 473 37,000  Level Houston Center
Thu 14:48:31 31.2853 -91.0500 60° Northeast 411 473 37,000  Level Houston Center
Thu 14:49:33 31.3550 -90.9114 59° Northeast 411 473 37,000  Level Houston Center
Thu 14:50:35 31.4139 -90.7953 59° Northeast 413 475 37,000  Level Houston Center
Thu 14:51:37 31.4708 -90.6789 60° Northeast 411 473 37,000  Level Houston Center
Thu 14:52:39 31.5286 -90.5639 59° Northeast 410 472 37,000  Level Houston Center
Thu 14:53:41 31.5856 -90.4472 60° Northeast 411 473 37,000  Level Houston Center
Thu 14:54:43 31.6431 -90.3306 60° Northeast 412 474 37,000  Level Houston Center
Thu 14:55:46 31.7122 -90.1900 60° Northeast 414 476 37,000  Level Houston Center
Thu 14:56:48 31.7703 -90.0708 60° Northeast 417 480 37,000  Level Houston Center
Thu 14:57:50 31.8292 -89.9511 60° Northeast 420 483 37,000  Level Houston Center
Thu 14:58:52 31.8922 -89.8197 60° Northeast 420 483 37,000  Level Houston Center
Thu 14:59:26 31.9211 -89.7625 59° Northeast 413 475 37,000  Level Memphis Center
Thu 15:00:26 31.9767 -89.6447 61° Northeast 413 475 37,000  Level Memphis Center
Thu 15:01:26 32.0325 -89.5292 60° Northeast 413 475 37,000  Level Memphis Center
Thu 15:02:26 32.0900 -89.4133 60° Northeast 413 475 37,000  Level Memphis Center
Thu 15:03:26 32.1517 -89.2825 61° Northeast 408 470 37,000  Level Memphis Center
Thu 15:04:26 32.2089 -89.1642 60° Northeast 408 470 37,000  Level Memphis Center
Thu 15:05:26 32.2661 -89.0453 60° Northeast 408 470 37,000  Level Memphis Center
Thu 15:06:26 32.3214 -88.9267 61° Northeast 408 470 37,000  Level Memphis Center
Thu 15:07:26 32.3783 -88.8075 60° Northeast 408 470 37,000  Level Memphis Center
Thu 15:08:26 32.4500 -88.7006 52° Northeast 408 470 37,000  Level Memphis Center
Thu 15:09:26 32.5258 -88.5906 51° Northeast 413 475 37,000  Level Memphis Center
Thu 15:10:26 32.6014 -88.4831 50° Northeast 418 481 37,000  Level Memphis Center
Thu 15:11:26 32.6792 -88.3753 49° Northeast 423 487 37,000  Level Memphis Center
Thu 15:14:14 32.8808 -88.0731 51° Northeast 408 470 37,000  Level Atlanta Center
Thu 15:15:14 32.9486 -87.9747 51° Northeast 403 464 37,000  Level Atlanta Center
Thu 15:16:14 33.0275 -87.8617 50° Northeast 409 471 37,000  Level Atlanta Center
Thu 15:17:14 33.0997 -87.7508 52° Northeast 409 471 37,000  Level Atlanta Center
Thu 15:18:14 33.1739 -87.6397 51° Northeast 409 471 37,000  Level Atlanta Center
Thu 15:19:14 33.2458 -87.5336 51° Northeast 409 471 37,000  Level Atlanta Center
Thu 15:20:14 33.3178 -87.4244 52° Northeast 409 471 37,000  Level Atlanta Center
Thu 15:21:14 33.3894 -87.3178 51° Northeast 409 471 37,000  Level Atlanta Center
Thu 15:22:14 33.4656 -87.2064 51° Northeast 414 476 37,000  Level Atlanta Center
Thu 15:23:14 33.5372 -87.0942 53° Northeast 419 482 37,000  Level Atlanta Center
Thu 15:24:14 33.6108 -86.9847 51° Northeast 419 482 37,000  Level Atlanta Center
Thu 15:25:14 33.6867 -86.8722 51° Northeast 419 482 37,000  Level Atlanta Center
Thu 15:26:14 33.7661 -86.7650 48° Northeast 419 482 37,000  Level Atlanta Center
Thu 15:27:14 33.8478 -86.6600 47° Northeast 424 488 37,000  Level Atlanta Center
Thu 15:28:14 33.9294 -86.5500 48° Northeast 430 495 37,000  Level Atlanta Center
Thu 15:29:14 34.0108 -86.4444 47° Northeast 430 495 37,000  Level Atlanta Center
Thu 15:30:14 34.0878 -86.3414 48° Northeast 425 489 37,000  Level Atlanta Center
Thu 15:31:14 34.1669 -86.2356 48° Northeast 425 489 37,000  Level Atlanta Center
Thu 15:32:14 34.2461 -86.1294 48° Northeast 425 489 37,000  Level Atlanta Center
Thu 15:33:14 34.3167 -86.0333 48° Northeast 425 489 37,000  Level Atlanta Center
Thu 15:34:14 34.3914 -85.9292 49° Northeast 425 489 37,000  Level Atlanta Center
Thu 15:35:14 34.4700 -85.8253 47° Northeast 420 483 37,000  Level Atlanta Center
Thu 15:36:14 34.5550 -85.7186 46° Northeast 408 470 37,000 -347 Level Atlanta Center
Thu 15:37:15 34.6275 -85.6139 50° Northeast 408 470 36,300 -1,300 Descending Atlanta Center
Thu 15:38:14 34.7081 -85.5069 47° Northeast 413 475 34,400 -1,916 Descending Atlanta Center
Thu 15:39:14 34.7864 -85.3994 48° Northeast 413 475 32,500 -1,200 Descending Atlanta Center
Thu 15:40:14 34.8606 -85.2969 49° Northeast 413 475 32,000 -250 Descending Atlanta Center
Thu 15:41:14 34.9306 -85.1967 50° Northeast 402 463 32,000 -950 Level Atlanta Center
Thu 15:42:14 35.0044 -85.0986 47° Northeast 396 456 30,100 -2,550 Descending Atlanta Center
Thu 15:43:14 35.0803 -84.9981 47° Northeast 396 456 26,900 -3,000 Descending Atlanta Center
Thu 15:44:14 35.1583 -84.8950 47° Northeast 396 456 24,100 -2,650 Descending Atlanta Center
Thu 15:45:14 35.2339 -84.7967 47° Northeast 396 456 21,600 -2,750 Descending Atlanta Center
Thu 15:46:14 35.3075 -84.6978 48° Northeast 396 456 18,600 -2,900 Descending Atlanta Center
Thu 15:47:14 35.3789 -84.6017 48° Northeast 391 450 15,800 -2,900 Descending Atlanta Center
Thu 15:48:14 35.4461 -84.5103 48° Northeast 380 437 12,800 -2,450 Descending Atlanta Center
Thu 15:49:14 35.5047 -84.4317 48° Northeast 363 418 10,900 -1,550 Descending Atlanta Center
Thu 15:50:14 35.5594 -84.3553 49° Northeast 328 377 9,700 -1,650 Descending Atlanta Center
Thu 15:51:14 35.6075 -84.2814 51° Northeast 293 337 7,600 -2,300 Descending Atlanta Center
Thu 15:52:14 35.6556 -84.2100 50° Northeast 272 313 5,100 -2,500 Descending Atlanta Center

Login

Don't have an account? Register now (free) for customized features, flight alerts, and more!